Terminal Aerodrome Forecast
Issued by NWS Twin Cities, MN

Home | Current Version | Previous Version | Graphics & Text | Print | Product List | Glossary On
Versions: 1 2 3 4 5 6 7 8 9 10 11 12 13 14 15 16 17 18 19 20 21 22 23 24 25
591
FTUS43 KMPX 042049 AAA
TAFMSP
TAF AMD
KMSP 042049Z 0421/0524 35012G20KT P6SM SKC
     FM042300 36009KT P6SM SKC
     FM050200 03004KT P6SM SKC
     FM051200 17005KT P6SM VCSH SCT070 BKN120
     FM051600 21008KT P6SM SCT120=

USA.gov is the U.S. government's official web portal to all federal, state and local government web resources and services.